createdAt,value
2018-01-29T00:00:54.801Z,4.47
2018-01-29T00:03:23.142Z,4.53
2018-01-29T00:05:51.391Z,4.30
2018-01-29T00:08:19.720Z,4.87
2018-01-29T00:10:48.044Z,4.30
2018-01-29T00:13:16.320Z,4.70
2018-01-29T00:15:44.618Z,4.10
2018-01-29T00:18:13.647Z,3.97
2018-01-29T00:20:41.883Z,4.27
2018-01-29T00:23:10.145Z,3.77
2018-01-29T00:25:40.055Z,3.77
2018-01-29T00:28:08.319Z,3.43
2018-01-29T00:30:36.565Z,3.30
2018-01-29T00:33:04.843Z,3.50
2018-01-29T00:35:33.078Z,3.00
2018-01-29T00:38:02.081Z,3.37
2018-01-29T00:40:30.335Z,3.00
2018-01-29T00:42:58.585Z,2.87
2018-01-29T00:45:26.950Z,3.17
2018-01-29T00:47:55.176Z,3.00
2018-01-29T00:50:24.201Z,2.67
2018-01-29T00:52:52.441Z,2.80
2018-01-29T00:55:20.721Z,3.07
2018-01-29T00:57:49.747Z,3.20
2018-01-29T01:00:18.006Z,3.03
2018-01-29T01:02:46.369Z,2.97
2018-01-29T01:05:14.644Z,3.10
2018-01-29T01:07:42.922Z,2.63
2018-01-29T01:10:11.958Z,2.70
2018-01-29T01:12:40.205Z,3.30
2018-01-29T01:15:08.441Z,3.30
2018-01-29T01:17:37.476Z,3.10
2018-01-29T01:20:05.726Z,3.20
2018-01-29T01:22:33.977Z,2.97
2018-01-29T01:25:03.808Z,2.80
2018-01-29T01:27:32.216Z,3.20
2018-01-29T01:30:00.530Z,3.10
2018-01-29T01:32:28.793Z,3.50
2018-01-29T01:34:57.054Z,3.33
2018-01-29T01:37:25.351Z,3.83
2018-01-29T01:39:53.575Z,3.70
2018-01-29T01:42:21.916Z,3.67
2018-01-29T01:44:51.684Z,3.63
2018-01-29T01:47:19.963Z,3.40
2018-01-29T01:49:48.211Z,3.83
2018-01-29T01:52:16.465Z,3.90
2018-01-29T01:54:45.593Z,3.60
2018-01-29T01:57:13.989Z,3.60
2018-01-29T01:59:42.249Z,3.87
2018-01-29T02:02:10.510Z,3.37
2018-01-29T02:04:38.773Z,3.27
2018-01-29T02:07:07.050Z,3.03
2018-01-29T02:09:36.039Z,3.20
2018-01-29T02:12:04.321Z,3.30
2018-01-29T02:14:32.556Z,3.33
2018-01-29T02:17:00.893Z,2.70
2018-01-29T02:19:29.174Z,2.57
2018-01-29T02:21:57.416Z,2.77
2018-01-29T02:24:25.664Z,3.10
2018-01-29T02:26:54.729Z,2.90
2018-01-29T02:29:23.805Z,2.80
2018-01-29T02:31:52.054Z,2.73
2018-01-29T02:34:20.346Z,2.73
2018-01-29T02:36:48.610Z,2.50
2018-01-29T02:39:16.882Z,2.80
2018-01-29T02:41:45.146Z,3.03
2018-01-29T02:44:14.707Z,3.03
2018-01-29T02:46:42.954Z,2.80
2018-01-29T02:49:11.214Z,2.50
2018-01-29T02:51:39.490Z,3.00
2018-01-29T02:54:07.874Z,2.53
2018-01-29T02:56:36.137Z,2.70
2018-01-29T02:59:04.405Z,2.57
2018-01-29T03:01:32.722Z,3.00
2018-01-29T03:04:00.997Z,2.60
2018-01-29T03:06:29.295Z,2.70
2018-01-29T03:08:57.534Z,2.53
2018-01-29T03:11:25.933Z,2.80
2018-01-29T03:13:54.218Z,2.90
2018-01-29T03:16:22.459Z,2.87
2018-01-29T03:18:50.722Z,3.10
2018-01-29T03:21:18.975Z,2.80
2018-01-29T03:23:47.995Z,3.10
2018-01-29T03:26:16.260Z,3.00
2018-01-29T03:28:44.531Z,3.43
2018-01-29T03:31:12.822Z,3.40
2018-01-29T03:33:41.086Z,3.70
2018-01-29T03:36:09.354Z,3.80
2018-01-29T03:38:37.671Z,3.60
2018-01-29T03:41:05.954Z,4.20
2018-01-29T03:43:35.111Z,4.20
2018-01-29T03:46:04.136Z,4.13
2018-01-29T03:48:32.415Z,4.10
2018-01-29T03:51:00.697Z,3.70
2018-01-29T03:53:28.933Z,3.83
2018-01-29T03:55:57.353Z,3.60
2018-01-29T03:58:25.594Z,4.13
2018-01-29T04:00:53.850Z,3.37
2018-01-29T04:03:22.170Z,3.93
2018-01-29T04:05:51.927Z,3.77
2018-01-29T04:08:20.175Z,4.43
2018-01-29T04:10:49.229Z,3.30
2018-01-29T04:13:17.635Z,3.07
2018-01-29T04:15:45.844Z,3.70
2018-01-29T04:18:14.109Z,3.67
2018-01-29T04:20:43.136Z,4.40
2018-01-29T04:23:11.403Z,4.00
2018-01-29T04:25:39.796Z,3.80
2018-01-29T04:28:08.089Z,3.70
2018-01-29T04:30:36.467Z,3.23
2018-01-29T04:33:04.847Z,3.47
2018-01-29T04:35:33.183Z,3.93
2018-01-29T04:38:01.442Z,4.50
2018-01-29T04:40:29.685Z,4.10
2018-01-29T04:42:57.957Z,4.40
2018-01-29T04:45:26.203Z,4.00
2018-01-29T04:47:54.511Z,4.17
2018-01-29T04:50:23.553Z,3.60
2018-01-29T04:52:51.801Z,3.97
2018-01-29T04:55:20.058Z,4.07
2018-01-29T04:57:49.221Z,4.50
2018-01-29T05:00:17.525Z,4.23
2018-01-29T05:02:45.860Z,4.27
2018-01-29T05:05:14.921Z,4.30
2018-01-29T05:07:43.219Z,4.20
2018-01-29T05:10:12.207Z,3.97
2018-01-29T05:12:40.582Z,3.90
2018-01-29T05:15:08.843Z,4.03
2018-01-29T05:17:37.099Z,3.60
2018-01-29T05:20:06.115Z,3.90
2018-01-29T05:22:35.129Z,3.70
2018-01-29T05:25:03.390Z,3.37
2018-01-29T05:27:31.642Z,3.10
2018-01-29T05:29:59.904Z,4.23
2018-01-29T05:32:28.902Z,3.50
2018-01-29T05:34:57.194Z,3.80
2018-01-29T05:37:25.444Z,3.33
2018-01-29T05:39:54.523Z,2.87
2018-01-29T05:42:22.779Z,2.90
2018-01-29T05:44:51.035Z,3.67
2018-01-29T05:47:19.302Z,4.10
2018-01-29T05:49:47.582Z,2.97
2018-01-29T05:52:15.853Z,3.67
2018-01-29T05:54:44.846Z,3.00
2018-01-29T05:57:13.276Z,2.60
2018-01-29T05:59:41.518Z,3.20
2018-01-29T06:02:09.790Z,3.20
2018-01-29T06:04:38.018Z,2.63
2018-01-29T06:07:06.479Z,3.17
2018-01-29T06:09:34.717Z,3.03
2018-01-29T06:12:02.991Z,3.80
2018-01-29T06:14:31.269Z,3.30
2018-01-29T06:16:59.523Z,3.00
2018-01-29T06:19:27.807Z,3.73
2018-01-29T06:21:56.063Z,4.03
2018-01-29T06:24:24.327Z,3.83
2018-01-29T06:26:52.568Z,3.20
2018-01-29T06:29:21.805Z,2.90
2018-01-29T06:31:50.054Z,3.17
2018-01-29T06:34:19.071Z,3.33
2018-01-29T06:36:47.315Z,2.97
2018-01-29T06:39:16.358Z,3.57
2018-01-29T06:41:44.637Z,3.17
2018-01-29T06:44:13.124Z,3.07
2018-01-29T06:46:41.383Z,3.50
2018-01-29T06:49:09.654Z,2.80
2018-01-29T06:51:38.080Z,3.43
2018-01-29T06:54:06.297Z,3.70
2018-01-29T06:56:34.760Z,3.10
2018-01-29T06:59:03.005Z,2.97
2018-01-29T07:01:31.277Z,3.53
2018-01-29T07:04:00.276Z,3.37
2018-01-29T07:06:28.548Z,3.23
2018-01-29T07:08:57.586Z,3.13
2018-01-29T07:11:25.874Z,2.90
2018-01-29T07:13:54.991Z,3.30
2018-01-29T07:16:23.269Z,4.30
2018-01-29T07:18:51.629Z,3.43
2018-01-29T07:21:19.898Z,3.80
2018-01-29T07:23:48.253Z,3.70
2018-01-29T07:26:16.526Z,3.50
2018-01-29T07:28:44.811Z,3.40
2018-01-29T07:31:13.137Z,4.10
2018-01-29T07:33:41.399Z,3.40
2018-01-29T07:36:09.671Z,3.40
2018-01-29T07:38:37.960Z,4.13
2018-01-29T07:41:06.352Z,3.37
2018-01-29T07:43:34.607Z,3.77
2018-01-29T07:46:02.976Z,3.80
2018-01-29T07:48:31.255Z,4.03
2018-01-29T07:50:59.502Z,3.80
2018-01-29T07:53:27.788Z,3.63
2018-01-29T07:55:56.111Z,3.87
2018-01-29T07:58:25.241Z,3.43
2018-01-29T08:00:53.523Z,3.37
2018-01-29T08:03:21.774Z,2.83
2018-01-29T08:05:50.043Z,3.37
2018-01-29T08:08:18.360Z,3.00
2018-01-29T08:10:46.712Z,3.30
2018-01-29T08:13:14.996Z,3.70
2018-01-29T08:15:43.304Z,3.73
2018-01-29T08:18:11.575Z,2.97
2018-01-29T08:20:39.846Z,3.33
2018-01-29T08:23:08.111Z,2.97
2018-01-29T08:25:36.471Z,2.77
2018-01-29T08:28:04.736Z,3.13
2018-01-29T08:30:33.043Z,3.40
2018-01-29T08:33:01.303Z,3.07
2018-01-29T08:35:29.559Z,3.10
2018-01-29T08:37:57.824Z,3.13
2018-01-29T08:40:26.124Z,3.33
2018-01-29T08:42:54.457Z,3.23
2018-01-29T08:45:22.791Z,2.50
2018-01-29T08:47:51.115Z,2.67
2018-01-29T08:50:19.431Z,2.87
2018-01-29T08:52:47.697Z,2.63
2018-01-29T08:55:15.939Z,2.60
2018-01-29T08:57:44.983Z,2.60
2018-01-29T09:00:13.239Z,2.60
2018-01-29T09:02:41.492Z,2.40
2018-01-29T09:05:09.738Z,2.67
2018-01-29T09:07:38.028Z,2.67
2018-01-29T09:10:07.101Z,2.67
2018-01-29T09:12:35.363Z,2.70
2018-01-29T09:15:03.630Z,3.30
2018-01-29T09:17:31.954Z,2.53
2018-01-29T09:20:00.266Z,2.40
2018-01-29T09:22:28.522Z,2.60
2018-01-29T09:24:56.786Z,2.10
2018-01-29T09:27:25.038Z,2.40
2018-01-29T09:29:54.119Z,2.87
2018-01-29T09:32:22.360Z,1.90
2018-01-29T09:34:50.606Z,2.23
2018-01-29T09:37:18.867Z,2.53
2018-01-29T09:39:47.896Z,2.00
2018-01-29T09:42:16.177Z,1.97
2018-01-29T09:44:44.505Z,2.17
2018-01-29T09:47:12.746Z,2.10
2018-01-29T09:49:41.005Z,2.23
2018-01-29T09:52:09.282Z,1.90
2018-01-29T09:54:37.573Z,2.03
2018-01-29T09:57:05.817Z,1.80
2018-01-29T09:59:34.094Z,2.43
2018-01-29T10:02:02.339Z,1.97
2018-01-29T10:04:30.630Z,1.80
2018-01-29T10:06:59.641Z,2.33
2018-01-29T10:09:27.877Z,1.90
2018-01-29T10:11:56.923Z,1.80
2018-01-29T10:14:25.170Z,2.00
2018-01-29T10:16:53.542Z,2.03
2018-01-29T10:19:21.815Z,2.40
2018-01-29T10:21:50.190Z,1.70
2018-01-29T10:24:18.505Z,1.97
2018-01-29T10:26:46.745Z,1.80
2018-01-29T10:29:15.051Z,1.97
2018-01-29T10:31:43.337Z,2.10
2018-01-29T10:34:12.357Z,2.00
2018-01-29T10:36:41.363Z,1.70
2018-01-29T10:39:09.632Z,1.63
2018-01-29T10:41:38.641Z,1.87
2018-01-29T10:44:06.927Z,2.00
2018-01-29T10:46:35.214Z,2.10
2018-01-29T10:49:03.579Z,2.47
2018-01-29T10:51:31.948Z,1.67
2018-01-29T10:54:00.225Z,1.80
2018-01-29T10:56:28.497Z,1.93
2018-01-29T10:58:56.752Z,1.53
2018-01-29T11:01:25.769Z,2.10
2018-01-29T11:03:54.130Z,2.40
2018-01-29T11:06:22.413Z,1.97
2018-01-29T11:08:50.647Z,2.37
2018-01-29T11:11:18.894Z,2.30
2018-01-29T11:13:47.136Z,2.67
2018-01-29T11:16:15.390Z,2.23
2018-01-29T11:18:44.407Z,2.47
2018-01-29T11:21:12.655Z,2.00
2018-01-29T11:23:41.631Z,2.40
2018-01-29T11:26:10.661Z,2.17
2018-01-29T11:28:39.074Z,2.10
2018-01-29T11:31:07.367Z,1.90
2018-01-29T11:33:37.192Z,2.13
2018-01-29T11:36:06.218Z,2.13
2018-01-29T11:38:34.461Z,1.83
2018-01-29T11:41:03.536Z,1.90
2018-01-29T11:43:33.314Z,2.07
2018-01-29T11:46:01.631Z,2.07
2018-01-29T11:48:29.915Z,1.83
2018-01-29T11:50:58.941Z,2.03
2018-01-29T11:53:27.237Z,2.13
2018-01-29T11:55:55.457Z,2.13
2018-01-29T11:58:24.478Z,2.47
2018-01-29T12:00:52.773Z,2.20
2018-01-29T12:03:21.100Z,2.13
2018-01-29T12:05:50.162Z,2.30
2018-01-29T12:08:18.488Z,2.50
2018-01-29T12:10:46.830Z,2.63
2018-01-29T12:13:15.103Z,1.90
2018-01-29T12:15:43.403Z,2.33
2018-01-29T12:18:12.430Z,2.70
2018-01-29T12:20:40.705Z,2.20
2018-01-29T12:23:08.999Z,2.47
2018-01-29T12:25:37.456Z,2.60
2018-01-29T12:28:05.696Z,2.50
2018-01-29T12:30:34.849Z,2.27
2018-01-29T12:33:03.139Z,2.30
2018-01-29T12:35:31.403Z,2.73
2018-01-29T12:37:59.621Z,2.53
2018-01-29T12:40:27.911Z,2.47
2018-01-29T12:42:56.175Z,2.13
2018-01-29T12:45:24.462Z,2.70
2018-01-29T12:47:53.086Z,2.23
2018-01-29T12:50:21.356Z,2.83
2018-01-29T12:52:49.607Z,2.93
2018-01-29T12:55:17.859Z,2.37
2018-01-29T12:57:46.236Z,2.90
2018-01-29T13:00:14.482Z,2.70
2018-01-29T13:02:43.640Z,3.07
2018-01-29T13:05:11.949Z,2.77
2018-01-29T13:07:40.172Z,2.53
2018-01-29T13:10:08.400Z,2.77
2018-01-29T13:12:37.469Z,3.00
2018-01-29T13:15:05.705Z,2.87
2018-01-29T13:17:34.199Z,2.83
2018-01-29T13:20:02.465Z,2.47
2018-01-29T13:22:30.734Z,2.80
2018-01-29T13:24:59.931Z,2.87
2018-01-29T13:27:28.925Z,3.10
2018-01-29T13:29:57.189Z,2.93
2018-01-29T13:32:25.457Z,2.60
2018-01-29T13:34:54.495Z,3.80
2018-01-29T13:37:22.783Z,2.80
2018-01-29T13:39:51.091Z,2.47
2018-01-29T13:42:20.128Z,2.40
2018-01-29T13:44:48.395Z,2.70
2018-01-29T13:47:16.638Z,3.40
2018-01-29T13:49:45.673Z,2.93
2018-01-29T13:52:13.954Z,3.23
2018-01-29T13:54:42.295Z,2.67
2018-01-29T13:57:10.545Z,3.07
2018-01-29T13:59:38.815Z,3.00
2018-01-29T14:02:07.073Z,3.10
2018-01-29T14:04:35.327Z,3.40
2018-01-29T14:07:03.674Z,2.90
2018-01-29T14:09:32.667Z,3.63
2018-01-29T14:12:00.935Z,3.37
2018-01-29T14:14:30.711Z,3.93
2018-01-29T14:16:59.777Z,3.93
2018-01-29T14:19:28.068Z,4.03
2018-01-29T14:21:56.326Z,3.73
2018-01-29T14:24:24.800Z,3.90
2018-01-29T14:26:53.054Z,3.83
2018-01-29T14:29:21.318Z,3.60
2018-01-29T14:31:49.588Z,4.07
2018-01-29T14:34:17.881Z,3.77
2018-01-29T14:36:46.143Z,3.30
2018-01-29T14:41:49.767Z,3.50
2018-01-29T14:44:18.023Z,3.40
2018-01-29T14:46:47.068Z,3.30
2018-01-29T14:49:15.387Z,3.40
2018-01-29T14:51:44.481Z,2.73
2018-01-29T14:54:13.531Z,3.43
2018-01-29T14:56:41.770Z,3.43
2018-01-29T14:59:10.037Z,2.60
2018-01-29T15:01:38.490Z,3.30
2018-01-29T15:04:08.327Z,2.83
2018-01-29T15:06:36.598Z,3.73
2018-01-29T15:09:04.888Z,3.90
2018-01-29T15:11:33.127Z,2.80
2018-01-29T15:14:02.186Z,3.00
2018-01-29T15:16:30.470Z,2.67
2018-01-29T15:18:58.764Z,3.40
2018-01-29T15:21:26.997Z,2.80
2018-01-29T15:23:55.281Z,2.90
2018-01-29T15:26:23.715Z,3.00
2018-01-29T15:28:51.992Z,3.03
2018-01-29T15:31:21.055Z,3.33
2018-01-29T15:33:49.342Z,3.47
2018-01-29T15:36:18.376Z,3.20
2018-01-29T15:38:46.634Z,4.20
2018-01-29T15:41:15.177Z,3.67
2018-01-29T15:43:43.453Z,3.47
2018-01-29T15:46:11.686Z,3.30
2018-01-29T15:48:39.989Z,3.80
2018-01-29T15:51:08.331Z,3.07
2018-01-29T15:53:36.633Z,3.93
2018-01-29T15:56:04.904Z,3.47
2018-01-29T15:58:33.192Z,3.57
2018-01-29T16:01:01.455Z,3.63
2018-01-29T16:03:29.734Z,3.03
2018-01-29T16:05:58.049Z,3.03
2018-01-29T16:08:26.354Z,3.10
2018-01-29T16:10:54.620Z,2.90
2018-01-29T16:13:22.911Z,2.60
2018-01-29T16:15:51.182Z,3.50
2018-01-29T16:18:19.441Z,3.03
2018-01-29T16:20:47.788Z,2.93
2018-01-29T16:23:16.002Z,3.33
2018-01-29T16:25:44.230Z,2.40
2018-01-29T16:28:13.255Z,2.53
2018-01-29T16:30:41.503Z,2.50
2018-01-29T16:33:10.656Z,2.70
2018-01-29T16:35:38.940Z,3.20
2018-01-29T16:38:07.230Z,2.67
2018-01-29T16:40:35.541Z,3.20
2018-01-29T16:43:04.623Z,3.10
2018-01-29T16:45:32.879Z,2.57
2018-01-29T16:48:01.208Z,3.30
2018-01-29T16:50:29.464Z,3.10
2018-01-29T16:52:58.674Z,3.07
2018-01-29T16:55:26.944Z,3.37
2018-01-29T16:57:55.278Z,3.87
2018-01-29T17:00:23.524Z,3.53
2018-01-29T17:02:51.798Z,3.43
2018-01-29T17:05:20.067Z,2.93
2018-01-29T17:07:48.357Z,3.20
2018-01-29T17:10:16.606Z,4.10
2018-01-29T17:12:44.965Z,3.00
2018-01-29T17:15:13.317Z,3.00
2018-01-29T17:17:42.360Z,3.53
2018-01-29T17:20:10.598Z,3.40
2018-01-29T17:22:39.719Z,3.83
2018-01-29T17:25:07.961Z,3.43
2018-01-29T17:27:37.009Z,3.93
2018-01-29T17:30:05.255Z,4.00
2018-01-29T17:32:33.513Z,4.20
2018-01-29T17:35:01.795Z,4.40
2018-01-29T17:37:30.138Z,4.43
2018-01-29T17:39:58.369Z,4.83
2018-01-29T17:42:26.627Z,5.67
2018-01-29T17:44:54.923Z,5.50
2018-01-29T17:47:23.204Z,5.57
2018-01-29T17:49:51.443Z,5.20
2018-01-29T17:52:19.748Z,6.83
2018-01-29T17:54:48.008Z,5.87
2018-01-29T17:57:16.279Z,6.40
2018-01-29T17:59:44.522Z,6.60
2018-01-29T18:02:13.543Z,5.87
2018-01-29T18:04:44.287Z,6.77
2018-01-29T18:07:12.519Z,7.63
2018-01-29T18:09:41.566Z,7.60
2018-01-29T18:12:09.822Z,7.30
2018-01-29T18:14:38.093Z,7.97
2018-01-29T18:17:06.383Z,8.80
2018-01-29T18:19:34.626Z,8.67
2018-01-29T18:22:02.891Z,8.87
2018-01-29T18:24:31.906Z,9.10
2018-01-29T18:27:00.179Z,8.43
2018-01-29T18:29:28.447Z,9.00
2018-01-29T18:31:56.848Z,9.83
2018-01-29T18:34:25.139Z,10.40
2018-01-29T18:36:53.375Z,10.27
2018-01-29T18:39:21.629Z,10.90
2018-01-29T18:41:50.659Z,9.23
2018-01-29T18:44:18.917Z,8.13
2018-01-29T18:46:47.918Z,7.80
2018-01-29T18:49:16.189Z,7.57
2018-01-29T18:51:44.470Z,6.20
2018-01-29T18:54:12.716Z,6.20
2018-01-29T18:56:41.736Z,6.90
2018-01-29T18:59:09.990Z,9.30
2018-01-29T19:01:39.045Z,9.33
2018-01-29T19:04:07.282Z,9.63
2018-01-29T19:06:35.722Z,7.57
2018-01-29T19:09:03.978Z,5.77
2018-01-29T19:11:32.254Z,5.37
2018-01-29T19:14:00.578Z,4.37
2018-01-29T19:16:29.607Z,3.43
2018-01-29T19:18:57.863Z,2.40
2018-01-29T19:21:26.095Z,2.83
2018-01-29T19:23:54.454Z,1.93
2018-01-29T19:26:22.677Z,1.90
2018-01-29T19:28:50.950Z,2.37
2018-01-29T19:31:19.203Z,2.00
2018-01-29T19:33:48.226Z,2.27
2018-01-29T19:36:16.517Z,2.30
2018-01-29T19:38:44.761Z,2.40
2018-01-29T19:41:13.077Z,2.13
2018-01-29T19:43:41.338Z,3.07
2018-01-29T19:46:09.645Z,2.80
2018-01-29T19:48:37.855Z,3.23
2018-01-29T19:51:06.167Z,3.30
2018-01-29T19:53:34.538Z,3.77
2018-01-29T19:56:02.774Z,3.10
2018-01-29T19:58:31.846Z,3.17
2018-01-29T20:01:00.125Z,3.60
2018-01-29T20:03:28.362Z,3.50
2018-01-29T20:05:56.667Z,3.87
2018-01-29T20:08:24.995Z,4.07
2018-01-29T20:10:53.236Z,3.90
2018-01-29T20:13:21.694Z,3.23
2018-01-29T20:15:51.455Z,3.30
2018-01-29T20:18:19.725Z,3.10
2018-01-29T20:20:47.980Z,3.23
2018-01-29T20:23:17.006Z,3.53
2018-01-29T20:25:45.264Z,3.40
2018-01-29T20:28:13.515Z,3.13
2018-01-29T20:30:42.565Z,3.90
2018-01-29T20:33:10.898Z,3.10
2018-01-29T20:35:39.294Z,2.70
2018-01-29T20:38:07.826Z,2.63
2018-01-29T20:40:36.137Z,2.47
2018-01-29T20:43:04.397Z,2.20
2018-01-29T20:45:33.407Z,1.97
2018-01-29T20:48:01.681Z,2.23
2018-01-29T20:50:30.011Z,1.73
2018-01-29T20:52:58.364Z,2.57
2018-01-29T20:55:26.737Z,2.53
2018-01-29T20:57:55.079Z,3.00
2018-01-29T21:00:24.114Z,2.30
2018-01-29T21:02:52.527Z,2.70
2018-01-29T21:05:21.562Z,2.30
2018-01-29T21:07:49.815Z,2.20
2018-01-29T21:10:18.063Z,2.73
2018-01-29T21:12:46.327Z,2.63
2018-01-29T21:15:15.193Z,2.47
2018-01-29T21:17:43.435Z,2.70
2018-01-29T21:20:11.715Z,2.90
2018-01-29T21:22:39.974Z,2.63
2018-01-29T21:25:09.463Z,2.30
2018-01-29T21:27:38.067Z,2.83
2018-01-29T21:30:06.340Z,3.57
2018-01-29T21:32:34.591Z,3.37
2018-01-29T21:35:02.894Z,2.83
2018-01-29T21:37:31.142Z,2.70
2018-01-29T21:40:00.942Z,2.67
2018-01-29T21:42:29.129Z,2.70
2018-01-29T21:44:57.482Z,2.90
2018-01-29T21:47:25.769Z,3.00
2018-01-29T21:49:54.067Z,3.07
2018-01-29T21:52:23.079Z,2.60
2018-01-29T21:54:51.522Z,3.00
2018-01-29T21:57:19.788Z,3.00
2018-01-29T21:59:48.890Z,3.30
2018-01-29T22:02:17.907Z,2.70
2018-01-29T22:04:46.187Z,2.50
2018-01-29T22:07:14.473Z,2.97
2018-01-29T22:09:43.562Z,2.63
2018-01-29T22:12:11.822Z,3.03
2018-01-29T22:14:40.117Z,3.13
2018-01-29T22:17:08.361Z,2.97
2018-01-29T22:19:37.374Z,3.37
2018-01-29T22:22:05.718Z,3.30
2018-01-29T22:24:37.874Z,2.70
2018-01-29T22:27:06.140Z,2.63
2018-01-29T22:29:34.421Z,2.73
2018-01-29T22:32:03.467Z,3.77
2018-01-29T22:34:31.781Z,3.00
2018-01-29T22:37:01.577Z,2.87
2018-01-29T22:39:29.809Z,2.80
2018-01-29T22:41:59.089Z,3.27
2018-01-29T22:44:28.111Z,2.70
2018-01-29T22:46:57.223Z,2.37
2018-01-29T22:49:25.462Z,3.00
2018-01-29T22:51:54.530Z,3.10
2018-01-29T22:54:22.848Z,2.70
2018-01-29T22:56:51.095Z,2.30
2018-01-29T22:59:20.152Z,2.70
2018-01-29T23:01:48.403Z,2.83
2018-01-29T23:04:16.660Z,2.70
2018-01-29T23:06:44.901Z,2.80
2018-01-29T23:09:13.182Z,2.00
2018-01-29T23:11:41.406Z,2.00
2018-01-29T23:14:09.725Z,2.93
2018-01-29T23:16:38.733Z,2.30
2018-01-29T23:19:07.795Z,2.63
2018-01-29T23:21:36.040Z,2.50
2018-01-29T23:24:04.351Z,2.47
2018-01-29T23:26:32.603Z,2.30
2018-01-29T23:29:00.870Z,2.33
2018-01-29T23:31:29.122Z,2.40
2018-01-29T23:33:57.378Z,2.43
2018-01-29T23:36:25.745Z,2.90
2018-01-29T23:38:54.754Z,2.40
2018-01-29T23:41:23.013Z,2.70
2018-01-29T23:43:52.010Z,2.63
2018-01-29T23:46:21.038Z,2.40
2018-01-29T23:48:49.360Z,2.70
2018-01-29T23:51:17.666Z,2.93
2018-01-29T23:53:46.681Z,3.53
2018-01-29T23:56:14.933Z,2.90
2018-01-29T23:58:43.191Z,3.10
